sensor_id;sensor_type;location;lat;lon;timestamp;P1;durP1;ratioP1;P2;durP2;ratioP2
32808;SDS011;19159;48.178;16.386;2023-11-21T00:00:00;7.82;;;2.88;;
32808;SDS011;19159;48.178;16.386;2023-11-21T00:02:26;5.95;;;2.00;;
32808;SDS011;19159;48.178;16.386;2023-11-21T00:04:54;5.20;;;1.63;;
32808;SDS011;19159;48.178;16.386;2023-11-21T00:07:20;4.10;;;1.67;;
32808;SDS011;19159;48.178;16.386;2023-11-21T00:09:46;5.20;;;1.40;;
32808;SDS011;19159;48.178;16.386;2023-11-21T00:12:12;4.72;;;1.50;;
32808;SDS011;19159;48.178;16.386;2023-11-21T00:14:39;6.15;;;1.45;;
32808;SDS011;19159;48.178;16.386;2023-11-21T00:17:04;4.88;;;1.50;;
32808;SDS011;19159;48.178;16.386;2023-11-21T00:19:31;4.45;;;1.30;;
32808;SDS011;19159;48.178;16.386;2023-11-21T00:21:57;6.75;;;1.73;;
32808;SDS011;19159;48.178;16.386;2023-11-21T00:24:23;4.63;;;1.70;;
32808;SDS011;19159;48.178;16.386;2023-11-21T00:26:50;3.60;;;1.70;;
32808;SDS011;19159;48.178;16.386;2023-11-21T00:29:16;6.07;;;1.80;;
32808;SDS011;19159;48.178;16.386;2023-11-21T00:31:43;5.10;;;2.00;;
32808;SDS011;19159;48.178;16.386;2023-11-21T00:34:09;4.38;;;2.10;;
32808;SDS011;19159;48.178;16.386;2023-11-21T00:36:36;4.18;;;1.77;;
32808;SDS011;19159;48.178;16.386;2023-11-21T00:39:01;5.20;;;1.60;;
32808;SDS011;19159;48.178;16.386;2023-11-21T00:41:28;5.63;;;1.70;;
32808;SDS011;19159;48.178;16.386;2023-11-21T00:43:54;6.13;;;1.65;;
32808;SDS011;19159;48.178;16.386;2023-11-21T00:46:20;4.15;;;1.35;;
32808;SDS011;19159;48.178;16.386;2023-11-21T00:48:46;5.63;;;1.52;;
32808;SDS011;19159;48.178;16.386;2023-11-21T00:51:11;4.05;;;1.73;;
32808;SDS011;19159;48.178;16.386;2023-11-21T00:53:37;5.85;;;1.50;;
32808;SDS011;19159;48.178;16.386;2023-11-21T00:56:03;4.93;;;1.90;;
32808;SDS011;19159;48.178;16.386;2023-11-21T00:58:29;6.75;;;1.83;;
32808;SDS011;19159;48.178;16.386;2023-11-21T01:00:55;4.50;;;1.60;;
32808;SDS011;19159;48.178;16.386;2023-11-21T01:03:21;5.60;;;1.50;;
32808;SDS011;19159;48.178;16.386;2023-11-21T01:05:46;3.83;;;1.58;;
32808;SDS011;19159;48.178;16.386;2023-11-21T01:08:14;6.70;;;2.08;;
32808;SDS011;19159;48.178;16.386;2023-11-21T01:10:40;3.97;;;1.63;;
32808;SDS011;19159;48.178;16.386;2023-11-21T01:13:05;3.22;;;1.40;;
32808;SDS011;19159;48.178;16.386;2023-11-21T01:15:32;4.68;;;1.70;;
32808;SDS011;19159;48.178;16.386;2023-11-21T01:17:58;4.22;;;1.55;;
32808;SDS011;19159;48.178;16.386;2023-11-21T01:20:24;6.50;;;1.73;;
32808;SDS011;19159;48.178;16.386;2023-11-21T01:22:49;6.03;;;2.13;;
32808;SDS011;19159;48.178;16.386;2023-11-21T01:25:15;3.55;;;1.80;;
32808;SDS011;19159;48.178;16.386;2023-11-21T01:27:41;4.35;;;1.75;;
32808;SDS011;19159;48.178;16.386;2023-11-21T01:30:08;8.00;;;1.77;;
32808;SDS011;19159;48.178;16.386;2023-11-21T01:32:35;5.88;;;1.73;;
32808;SDS011;19159;48.178;16.386;2023-11-21T01:35:01;4.13;;;1.83;;
32808;SDS011;19159;48.178;16.386;2023-11-21T01:37:27;7.03;;;1.88;;
32808;SDS011;19159;48.178;16.386;2023-11-21T01:39:53;5.07;;;1.52;;
32808;SDS011;19159;48.178;16.386;2023-11-21T01:42:22;6.65;;;2.13;;
32808;SDS011;19159;48.178;16.386;2023-11-21T01:44:48;5.45;;;1.88;;
32808;SDS011;19159;48.178;16.386;2023-11-21T01:47:14;6.25;;;2.00;;
32808;SDS011;19159;48.178;16.386;2023-11-21T01:49:41;5.00;;;1.77;;
32808;SDS011;19159;48.178;16.386;2023-11-21T01:52:09;7.97;;;2.00;;
32808;SDS011;19159;48.178;16.386;2023-11-21T01:54:36;6.50;;;1.83;;
32808;SDS011;19159;48.178;16.386;2023-11-21T01:57:03;4.80;;;1.90;;
32808;SDS011;19159;48.178;16.386;2023-11-21T01:59:35;5.90;;;1.80;;
32808;SDS011;19159;48.178;16.386;2023-11-21T02:02:05;4.93;;;2.17;;
32808;SDS011;19159;48.178;16.386;2023-11-21T02:04:32;5.53;;;2.05;;
32808;SDS011;19159;48.178;16.386;2023-11-21T02:06:59;4.60;;;1.75;;
32808;SDS011;19159;48.178;16.386;2023-11-21T02:09:25;6.72;;;2.15;;
32808;SDS011;19159;48.178;16.386;2023-11-21T02:11:52;8.50;;;2.40;;
32808;SDS011;19159;48.178;16.386;2023-11-21T02:14:19;6.70;;;2.08;;
32808;SDS011;19159;48.178;16.386;2023-11-21T02:16:50;9.30;;;2.35;;
32808;SDS011;19159;48.178;16.386;2023-11-21T02:19:22;7.90;;;2.05;;
32808;SDS011;19159;48.178;16.386;2023-11-21T02:21:50;5.75;;;2.00;;
32808;SDS011;19159;48.178;16.386;2023-11-21T02:24:22;7.90;;;2.20;;
32808;SDS011;19159;48.178;16.386;2023-11-21T02:26:48;7.75;;;2.20;;
32808;SDS011;19159;48.178;16.386;2023-11-21T02:29:18;7.57;;;2.20;;
32808;SDS011;19159;48.178;16.386;2023-11-21T02:31:47;6.15;;;1.90;;
32808;SDS011;19159;48.178;16.386;2023-11-21T02:34:19;8.25;;;2.10;;
32808;SDS011;19159;48.178;16.386;2023-11-21T02:36:45;5.88;;;1.90;;
32808;SDS011;19159;48.178;16.386;2023-11-21T02:39:12;8.65;;;2.58;;
32808;SDS011;19159;48.178;16.386;2023-11-21T02:41:38;5.13;;;1.85;;
32808;SDS011;19159;48.178;16.386;2023-11-21T02:44:07;7.20;;;1.92;;
32808;SDS011;19159;48.178;16.386;2023-11-21T02:46:33;4.22;;;1.50;;
32808;SDS011;19159;48.178;16.386;2023-11-21T02:49:02;4.32;;;1.58;;
32808;SDS011;19159;48.178;16.386;2023-11-21T02:51:29;7.00;;;2.10;;
32808;SDS011;19159;48.178;16.386;2023-11-21T02:53:55;5.60;;;1.77;;
32808;SDS011;19159;48.178;16.386;2023-11-21T02:56:25;5.90;;;2.25;;
32808;SDS011;19159;48.178;16.386;2023-11-21T02:58:51;3.85;;;1.75;;
32808;SDS011;19159;48.178;16.386;2023-11-21T03:01:17;5.30;;;1.67;;
32808;SDS011;19159;48.178;16.386;2023-11-21T03:03:43;4.75;;;2.00;;
32808;SDS011;19159;48.178;16.386;2023-11-21T03:06:09;4.10;;;1.52;;
32808;SDS011;19159;48.178;16.386;2023-11-21T03:08:34;6.20;;;2.25;;
32808;SDS011;19159;48.178;16.386;2023-11-21T03:11:00;8.27;;;2.53;;
32808;SDS011;19159;48.178;16.386;2023-11-21T03:13:28;5.05;;;1.83;;
32808;SDS011;19159;48.178;16.386;2023-11-21T03:15:54;6.88;;;2.28;;
32808;SDS011;19159;48.178;16.386;2023-11-21T03:18:20;5.70;;;1.77;;
32808;SDS011;19159;48.178;16.386;2023-11-21T03:20:47;9.70;;;1.75;;
32808;SDS011;19159;48.178;16.386;2023-11-21T03:23:13;6.55;;;2.00;;
32808;SDS011;19159;48.178;16.386;2023-11-21T03:25:38;4.97;;;2.00;;
32808;SDS011;19159;48.178;16.386;2023-11-21T03:28:04;6.15;;;1.90;;
32808;SDS011;19159;48.178;16.386;2023-11-21T03:30:30;6.20;;;2.00;;
32808;SDS011;19159;48.178;16.386;2023-11-21T03:32:55;5.07;;;1.65;;
32808;SDS011;19159;48.178;16.386;2023-11-21T03:35:21;4.53;;;2.00;;
32808;SDS011;19159;48.178;16.386;2023-11-21T03:37:47;5.35;;;1.95;;
32808;SDS011;19159;48.178;16.386;2023-11-21T03:40:13;7.32;;;1.95;;
32808;SDS011;19159;48.178;16.386;2023-11-21T03:42:38;7.47;;;1.67;;
32808;SDS011;19159;48.178;16.386;2023-11-21T03:45:07;4.30;;;1.70;;
32808;SDS011;19159;48.178;16.386;2023-11-21T03:47:34;4.95;;;1.48;;
32808;SDS011;19159;48.178;16.386;2023-11-21T03:49:59;5.32;;;1.90;;
32808;SDS011;19159;48.178;16.386;2023-11-21T03:52:25;7.90;;;2.33;;
32808;SDS011;19159;48.178;16.386;2023-11-21T03:54:53;6.60;;;2.40;;
32808;SDS011;19159;48.178;16.386;2023-11-21T03:57:20;8.65;;;2.03;;
32808;SDS011;19159;48.178;16.386;2023-11-21T03:59:46;5.53;;;1.67;;
32808;SDS011;19159;48.178;16.386;2023-11-21T04:02:11;6.20;;;1.83;;
32808;SDS011;19159;48.178;16.386;2023-11-21T04:04:37;6.22;;;2.08;;
32808;SDS011;19159;48.178;16.386;2023-11-21T04:07:03;8.93;;;2.08;;
32808;SDS011;19159;48.178;16.386;2023-11-21T04:09:29;5.07;;;1.70;;
32808;SDS011;19159;48.178;16.386;2023-11-21T04:11:55;5.78;;;2.05;;
32808;SDS011;19159;48.178;16.386;2023-11-21T04:14:20;5.30;;;1.63;;
32808;SDS011;19159;48.178;16.386;2023-11-21T04:16:47;7.68;;;2.20;;
32808;SDS011;19159;48.178;16.386;2023-11-21T04:19:13;7.60;;;1.70;;
32808;SDS011;19159;48.178;16.386;2023-11-21T04:21:42;7.70;;;2.05;;
32808;SDS011;19159;48.178;16.386;2023-11-21T04:24:08;5.20;;;1.60;;
32808;SDS011;19159;48.178;16.386;2023-11-21T04:26:34;5.20;;;1.52;;
32808;SDS011;19159;48.178;16.386;2023-11-21T04:29:00;7.05;;;1.95;;
32808;SDS011;19159;48.178;16.386;2023-11-21T04:31:25;7.05;;;1.85;;
32808;SDS011;19159;48.178;16.386;2023-11-21T04:33:51;5.35;;;1.75;;
32808;SDS011;19159;48.178;16.386;2023-11-21T04:36:16;10.75;;;2.53;;
32808;SDS011;19159;48.178;16.386;2023-11-21T04:38:42;5.90;;;1.90;;
32808;SDS011;19159;48.178;16.386;2023-11-21T04:41:09;5.05;;;1.63;;
32808;SDS011;19159;48.178;16.386;2023-11-21T04:43:34;4.50;;;1.88;;
32808;SDS011;19159;48.178;16.386;2023-11-21T04:46:00;4.90;;;1.75;;
32808;SDS011;19159;48.178;16.386;2023-11-21T04:48:27;8.45;;;1.98;;
32808;SDS011;19159;48.178;16.386;2023-11-21T04:50:52;8.80;;;2.60;;
32808;SDS011;19159;48.178;16.386;2023-11-21T04:53:18;7.38;;;2.13;;
32808;SDS011;19159;48.178;16.386;2023-11-21T04:55:44;4.70;;;1.75;;
32808;SDS011;19159;48.178;16.386;2023-11-21T04:58:11;6.90;;;2.10;;
32808;SDS011;19159;48.178;16.386;2023-11-21T05:00:37;5.82;;;1.83;;
32808;SDS011;19159;48.178;16.386;2023-11-21T05:03:03;7.40;;;1.92;;
32808;SDS011;19159;48.178;16.386;2023-11-21T05:05:30;5.65;;;1.75;;
32808;SDS011;19159;48.178;16.386;2023-11-21T05:07:55;5.45;;;1.80;;
32808;SDS011;19159;48.178;16.386;2023-11-21T05:10:21;6.47;;;2.15;;
32808;SDS011;19159;48.178;16.386;2023-11-21T05:12:47;6.93;;;2.20;;
32808;SDS011;19159;48.178;16.386;2023-11-21T05:15:15;6.85;;;2.33;;
32808;SDS011;19159;48.178;16.386;2023-11-21T05:17:42;5.32;;;2.20;;
32808;SDS011;19159;48.178;16.386;2023-11-21T05:20:11;7.47;;;1.92;;
32808;SDS011;19159;48.178;16.386;2023-11-21T05:22:39;9.30;;;2.78;;
32808;SDS011;19159;48.178;16.386;2023-11-21T05:25:05;6.90;;;2.15;;
32808;SDS011;19159;48.178;16.386;2023-11-21T05:27:34;11.93;;;2.67;;
32808;SDS011;19159;48.178;16.386;2023-11-21T05:30:01;8.10;;;2.40;;
32808;SDS011;19159;48.178;16.386;2023-11-21T05:32:30;9.65;;;2.78;;
32808;SDS011;19159;48.178;16.386;2023-11-21T05:34:55;10.30;;;2.47;;
32808;SDS011;19159;48.178;16.386;2023-11-21T05:37:21;5.35;;;2.20;;
32808;SDS011;19159;48.178;16.386;2023-11-21T05:39:48;5.40;;;2.20;;
32808;SDS011;19159;48.178;16.386;2023-11-21T05:42:14;9.85;;;2.45;;
32808;SDS011;19159;48.178;16.386;2023-11-21T05:44:41;11.90;;;2.38;;
32808;SDS011;19159;48.178;16.386;2023-11-21T05:47:10;9.50;;;2.45;;
32808;SDS011;19159;48.178;16.386;2023-11-21T05:49:36;8.00;;;2.88;;
32808;SDS011;19159;48.178;16.386;2023-11-21T05:52:02;7.00;;;2.47;;
32808;SDS011;19159;48.178;16.386;2023-11-21T05:54:28;6.93;;;2.33;;
32808;SDS011;19159;48.178;16.386;2023-11-21T05:56:53;7.57;;;2.35;;
32808;SDS011;19159;48.178;16.386;2023-11-21T05:59:19;5.70;;;2.40;;
32808;SDS011;19159;48.178;16.386;2023-11-21T06:01:45;8.77;;;2.75;;
32808;SDS011;19159;48.178;16.386;2023-11-21T06:04:11;7.72;;;3.00;;
32808;SDS011;19159;48.178;16.386;2023-11-21T06:06:37;9.38;;;2.45;;
32808;SDS011;19159;48.178;16.386;2023-11-21T06:09:03;9.10;;;2.58;;
32808;SDS011;19159;48.178;16.386;2023-11-21T06:11:31;10.43;;;2.90;;
32808;SDS011;19159;48.178;16.386;2023-11-21T06:13:56;9.63;;;2.50;;
32808;SDS011;19159;48.178;16.386;2023-11-21T06:16:23;7.93;;;2.28;;
32808;SDS011;19159;48.178;16.386;2023-11-21T06:18:49;6.13;;;2.55;;
32808;SDS011;19159;48.178;16.386;2023-11-21T06:21:15;7.57;;;2.47;;
32808;SDS011;19159;48.178;16.386;2023-11-21T06:23:41;8.27;;;2.22;;
32808;SDS011;19159;48.178;16.386;2023-11-21T06:26:07;8.35;;;2.45;;
32808;SDS011;19159;48.178;16.386;2023-11-21T06:28:34;6.70;;;2.50;;
32808;SDS011;19159;48.178;16.386;2023-11-21T06:31:01;7.65;;;2.63;;
32808;SDS011;19159;48.178;16.386;2023-11-21T06:33:33;10.75;;;2.70;;
32808;SDS011;19159;48.178;16.386;2023-11-21T06:35:59;10.48;;;2.95;;
32808;SDS011;19159;48.178;16.386;2023-11-21T06:38:28;9.23;;;2.45;;
32808;SDS011;19159;48.178;16.386;2023-11-21T06:40:55;8.52;;;2.85;;
32808;SDS011;19159;48.178;16.386;2023-11-21T06:43:21;11.25;;;2.75;;
32808;SDS011;19159;48.178;16.386;2023-11-21T06:45:47;8.88;;;2.67;;
32808;SDS011;19159;48.178;16.386;2023-11-21T06:48:13;7.03;;;2.38;;
32808;SDS011;19159;48.178;16.386;2023-11-21T06:50:39;6.63;;;2.60;;
32808;SDS011;19159;48.178;16.386;2023-11-21T06:53:04;8.02;;;2.70;;
32808;SDS011;19159;48.178;16.386;2023-11-21T06:55:32;7.28;;;2.63;;
32808;SDS011;19159;48.178;16.386;2023-11-21T06:57:58;8.27;;;2.10;;
32808;SDS011;19159;48.178;16.386;2023-11-21T07:00:25;6.60;;;2.50;;
32808;SDS011;19159;48.178;16.386;2023-11-21T07:02:53;9.40;;;2.78;;
32808;SDS011;19159;48.178;16.386;2023-11-21T07:05:20;8.32;;;3.40;;
32808;SDS011;19159;48.178;16.386;2023-11-21T07:07:46;12.30;;;2.75;;
32808;SDS011;19159;48.178;16.386;2023-11-21T07:10:13;13.57;;;3.00;;
32808;SDS011;19159;48.178;16.386;2023-11-21T07:12:39;9.18;;;2.88;;
32808;SDS011;19159;48.178;16.386;2023-11-21T07:15:05;10.40;;;2.78;;
32808;SDS011;19159;48.178;16.386;2023-11-21T07:17:34;7.30;;;2.80;;
32808;SDS011;19159;48.178;16.386;2023-11-21T07:20:03;11.35;;;3.30;;
32808;SDS011;19159;48.178;16.386;2023-11-21T07:22:29;13.98;;;3.30;;
32808;SDS011;19159;48.178;16.386;2023-11-21T07:24:55;8.43;;;2.67;;
32808;SDS011;19159;48.178;16.386;2023-11-21T07:27:21;11.30;;;3.00;;
32808;SDS011;19159;48.178;16.386;2023-11-21T07:29:47;10.30;;;3.15;;
32808;SDS011;19159;48.178;16.386;2023-11-21T07:32:13;7.55;;;2.40;;
32808;SDS011;19159;48.178;16.386;2023-11-21T07:34:39;10.02;;;2.83;;
32808;SDS011;19159;48.178;16.386;2023-11-21T07:37:06;8.05;;;2.50;;
32808;SDS011;19159;48.178;16.386;2023-11-21T07:39:32;13.13;;;2.67;;
32808;SDS011;19159;48.178;16.386;2023-11-21T07:41:57;11.63;;;3.70;;
32808;SDS011;19159;48.178;16.386;2023-11-21T07:44:23;9.00;;;2.50;;
32808;SDS011;19159;48.178;16.386;2023-11-21T07:46:49;9.13;;;2.63;;
32808;SDS011;19159;48.178;16.386;2023-11-21T07:49:17;6.47;;;3.00;;
32808;SDS011;19159;48.178;16.386;2023-11-21T07:51:45;7.75;;;2.72;;
32808;SDS011;19159;48.178;16.386;2023-11-21T07:54:11;9.40;;;3.20;;
32808;SDS011;19159;48.178;16.386;2023-11-21T07:56:36;9.35;;;2.92;;
32808;SDS011;19159;48.178;16.386;2023-11-21T07:59:02;7.97;;;2.60;;
32808;SDS011;19159;48.178;16.386;2023-11-21T08:01:28;5.72;;;2.47;;
32808;SDS011;19159;48.178;16.386;2023-11-21T08:03:54;12.23;;;3.60;;
32808;SDS011;19159;48.178;16.386;2023-11-21T08:06:22;14.80;;;3.47;;
32808;SDS011;19159;48.178;16.386;2023-11-21T08:08:51;9.25;;;3.08;;
32808;SDS011;19159;48.178;16.386;2023-11-21T08:11:16;14.00;;;3.22;;
32808;SDS011;19159;48.178;16.386;2023-11-21T08:13:42;8.68;;;3.35;;
32808;SDS011;19159;48.178;16.386;2023-11-21T08:16:08;9.57;;;3.00;;
32808;SDS011;19159;48.178;16.386;2023-11-21T08:18:33;12.13;;;3.47;;
32808;SDS011;19159;48.178;16.386;2023-11-21T08:20:59;7.28;;;2.38;;
32808;SDS011;19159;48.178;16.386;2023-11-21T08:23:25;8.85;;;3.28;;
32808;SDS011;19159;48.178;16.386;2023-11-21T08:25:51;11.45;;;3.38;;
32808;SDS011;19159;48.178;16.386;2023-11-21T08:28:18;9.70;;;2.95;;
32808;SDS011;19159;48.178;16.386;2023-11-21T08:30:43;9.95;;;2.95;;
32808;SDS011;19159;48.178;16.386;2023-11-21T08:33:09;8.80;;;2.88;;
32808;SDS011;19159;48.178;16.386;2023-11-21T08:35:36;9.30;;;3.08;;
32808;SDS011;19159;48.178;16.386;2023-11-21T08:38:02;9.65;;;3.10;;
32808;SDS011;19159;48.178;16.386;2023-11-21T08:40:28;11.05;;;3.53;;
32808;SDS011;19159;48.178;16.386;2023-11-21T08:42:54;11.77;;;3.17;;
32808;SDS011;19159;48.178;16.386;2023-11-21T08:45:23;12.77;;;3.60;;
32808;SDS011;19159;48.178;16.386;2023-11-21T08:47:50;7.88;;;3.20;;
32808;SDS011;19159;48.178;16.386;2023-11-21T08:50:15;10.25;;;2.90;;
32808;SDS011;19159;48.178;16.386;2023-11-21T08:52:41;5.63;;;2.28;;
32808;SDS011;19159;48.178;16.386;2023-11-21T08:55:07;6.85;;;2.88;;
32808;SDS011;19159;48.178;16.386;2023-11-21T08:57:34;8.75;;;2.42;;
32808;SDS011;19159;48.178;16.386;2023-11-21T09:00:01;7.85;;;2.58;;
32808;SDS011;19159;48.178;16.386;2023-11-21T09:02:28;6.07;;;1.90;;
32808;SDS011;19159;48.178;16.386;2023-11-21T09:04:53;5.70;;;2.22;;
32808;SDS011;19159;48.178;16.386;2023-11-21T09:07:19;6.47;;;2.60;;
32808;SDS011;19159;48.178;16.386;2023-11-21T09:09:46;8.85;;;2.80;;
32808;SDS011;19159;48.178;16.386;2023-11-21T09:12:12;8.70;;;2.42;;
32808;SDS011;19159;48.178;16.386;2023-11-21T09:14:38;5.68;;;2.22;;
32808;SDS011;19159;48.178;16.386;2023-11-21T09:17:04;6.90;;;2.10;;
32808;SDS011;19159;48.178;16.386;2023-11-21T09:19:36;8.25;;;2.40;;
32808;SDS011;19159;48.178;16.386;2023-11-21T09:22:05;9.75;;;2.45;;
32808;SDS011;19159;48.178;16.386;2023-11-21T09:24:31;5.38;;;2.28;;
32808;SDS011;19159;48.178;16.386;2023-11-21T09:26:59;7.07;;;2.08;;
32808;SDS011;19159;48.178;16.386;2023-11-21T09:29:28;5.88;;;2.30;;
32808;SDS011;19159;48.178;16.386;2023-11-21T09:31:54;4.72;;;2.13;;
32808;SDS011;19159;48.178;16.386;2023-11-21T09:34:22;9.32;;;2.15;;
32808;SDS011;19159;48.178;16.386;2023-11-21T09:36:47;4.63;;;2.15;;
32808;SDS011;19159;48.178;16.386;2023-11-21T09:39:15;8.73;;;2.55;;
32808;SDS011;19159;48.178;16.386;2023-11-21T09:48:23;5.68;;;1.63;;
32808;SDS011;19159;48.178;16.386;2023-11-21T09:55:34;3.42;;;1.30;;
32808;SDS011;19159;48.178;16.386;2023-11-21T09:58:20;4.60;;;1.30;;
32808;SDS011;19159;48.178;16.386;2023-11-21T10:00:51;6.03;;;1.63;;
32808;SDS011;19159;48.178;16.386;2023-11-21T10:03:18;3.63;;;1.65;;
32808;SDS011;19159;48.178;16.386;2023-11-21T10:05:44;4.72;;;1.20;;
32808;SDS011;19159;48.178;16.386;2023-11-21T10:08:15;4.32;;;1.50;;
32808;SDS011;19159;48.178;16.386;2023-11-21T10:10:42;3.83;;;1.25;;
32808;SDS011;19159;48.178;16.386;2023-11-21T10:13:15;6.53;;;1.67;;
32808;SDS011;19159;48.178;16.386;2023-11-21T10:15:43;3.78;;;1.35;;
32808;SDS011;19159;48.178;16.386;2023-11-21T10:18:13;4.82;;;1.48;;
32808;SDS011;19159;48.178;16.386;2023-11-21T10:20:42;5.45;;;1.23;;
32808;SDS011;19159;48.178;16.386;2023-11-21T10:23:09;6.00;;;1.60;;
32808;SDS011;19159;48.178;16.386;2023-11-21T10:25:36;2.80;;;1.30;;
32808;SDS011;19159;48.178;16.386;2023-11-21T10:28:02;2.63;;;1.10;;
32808;SDS011;19159;48.178;16.386;2023-11-21T10:30:32;5.03;;;1.42;;
32808;SDS011;19159;48.178;16.386;2023-11-21T10:36:02;5.40;;;1.48;;
32808;SDS011;19159;48.178;16.386;2023-11-21T10:38:28;4.72;;;1.83;;
32808;SDS011;19159;48.178;16.386;2023-11-21T10:41:09;6.45;;;1.35;;
32808;SDS011;19159;48.178;16.386;2023-11-21T10:43:38;3.05;;;1.60;;
32808;SDS011;19159;48.178;16.386;2023-11-21T10:46:04;4.38;;;1.27;;
32808;SDS011;19159;48.178;16.386;2023-11-21T10:48:30;5.15;;;1.33;;
32808;SDS011;19159;48.178;16.386;2023-11-21T10:50:58;2.35;;;1.00;;
32808;SDS011;19159;48.178;16.386;2023-11-21T10:53:24;2.90;;;1.02;;
32808;SDS011;19159;48.178;16.386;2023-11-21T10:56:00;6.97;;;1.63;;
32808;SDS011;19159;48.178;16.386;2023-11-21T10:58:32;3.97;;;1.50;;
32808;SDS011;19159;48.178;16.386;2023-11-21T11:00:58;5.55;;;1.33;;
32808;SDS011;19159;48.178;16.386;2023-11-21T11:03:25;5.13;;;1.63;;
32808;SDS011;19159;48.178;16.386;2023-11-21T11:05:51;3.85;;;1.48;;
32808;SDS011;19159;48.178;16.386;2023-11-21T11:08:20;3.20;;;1.20;;
32808;SDS011;19159;48.178;16.386;2023-11-21T11:10:51;3.80;;;1.35;;
32808;SDS011;19159;48.178;16.386;2023-11-21T11:13:17;3.63;;;1.50;;
32808;SDS011;19159;48.178;16.386;2023-11-21T11:15:44;5.45;;;1.63;;
32808;SDS011;19159;48.178;16.386;2023-11-21T11:18:12;4.22;;;1.17;;
32808;SDS011;19159;48.178;16.386;2023-11-21T11:20:40;2.20;;;1.08;;
32808;SDS011;19159;48.178;16.386;2023-11-21T11:28:59;2.88;;;1.10;;
32808;SDS011;19159;48.178;16.386;2023-11-21T11:31:40;3.83;;;1.00;;
32808;SDS011;19159;48.178;16.386;2023-11-21T11:34:30;4.05;;;1.23;;
32808;SDS011;19159;48.178;16.386;2023-11-21T11:37:20;3.70;;;1.35;;
32808;SDS011;19159;48.178;16.386;2023-11-21T11:39:48;3.35;;;0.70;;
32808;SDS011;19159;48.178;16.386;2023-11-21T11:42:15;2.35;;;1.10;;
32808;SDS011;19159;48.178;16.386;2023-11-21T11:47:14;3.15;;;0.77;;
32808;SDS011;19159;48.178;16.386;2023-11-21T11:49:58;3.25;;;1.30;;
32808;SDS011;19159;48.178;16.386;2023-11-21T11:55:07;2.50;;;0.98;;
32808;SDS011;19159;48.178;16.386;2023-11-21T11:57:38;5.28;;;3.80;;
32808;SDS011;19159;48.178;16.386;2023-11-21T12:02:41;3.40;;;1.13;;
32808;SDS011;19159;48.178;16.386;2023-11-21T12:05:13;2.22;;;1.10;;
32808;SDS011;19159;48.178;16.386;2023-11-21T12:10:13;3.92;;;1.15;;
32808;SDS011;19159;48.178;16.386;2023-11-21T12:12:45;3.17;;;1.02;;
32808;SDS011;19159;48.178;16.386;2023-11-21T12:15:14;4.07;;;1.02;;
32808;SDS011;19159;48.178;16.386;2023-11-21T12:17:41;3.00;;;1.27;;
32808;SDS011;19159;48.178;16.386;2023-11-21T12:20:08;2.42;;;1.13;;
32808;SDS011;19159;48.178;16.386;2023-11-21T12:22:58;2.97;;;1.17;;
32808;SDS011;19159;48.178;16.386;2023-11-21T12:25:28;5.20;;;0.98;;
32808;SDS011;19159;48.178;16.386;2023-11-21T12:27:56;4.00;;;1.17;;
32808;SDS011;19159;48.178;16.386;2023-11-21T12:30:24;3.80;;;1.45;;
32808;SDS011;19159;48.178;16.386;2023-11-21T12:32:53;2.85;;;0.98;;
32808;SDS011;19159;48.178;16.386;2023-11-21T12:35:27;4.50;;;1.30;;
32808;SDS011;19159;48.178;16.386;2023-11-21T12:38:01;1.50;;;0.80;;
32808;SDS011;19159;48.178;16.386;2023-11-21T12:40:28;2.85;;;1.00;;
32808;SDS011;19159;48.178;16.386;2023-11-21T12:42:57;2.53;;;1.02;;
32808;SDS011;19159;48.178;16.386;2023-11-21T12:45:26;2.20;;;1.00;;
32808;SDS011;19159;48.178;16.386;2023-11-21T12:47:57;2.13;;;1.20;;
32808;SDS011;19159;48.178;16.386;2023-11-21T12:50:32;4.28;;;1.40;;
32808;SDS011;19159;48.178;16.386;2023-11-21T12:53:02;3.45;;;1.70;;
32808;SDS011;19159;48.178;16.386;2023-11-21T12:55:30;3.35;;;1.00;;
32808;SDS011;19159;48.178;16.386;2023-11-21T12:57:57;3.33;;;1.20;;
32808;SDS011;19159;48.178;16.386;2023-11-21T13:00:34;3.40;;;1.30;;
32808;SDS011;19159;48.178;16.386;2023-11-21T13:03:11;4.45;;;1.40;;
32808;SDS011;19159;48.178;16.386;2023-11-21T13:05:42;3.80;;;1.95;;
32808;SDS011;19159;48.178;16.386;2023-11-21T13:08:13;2.92;;;1.30;;
32808;SDS011;19159;48.178;16.386;2023-11-21T13:10:43;5.20;;;1.60;;
32808;SDS011;19159;48.178;16.386;2023-11-21T13:13:12;4.43;;;1.52;;
32808;SDS011;19159;48.178;16.386;2023-11-21T13:15:55;3.28;;;1.40;;
32808;SDS011;19159;48.178;16.386;2023-11-21T13:18:25;4.50;;;1.60;;
32808;SDS011;19159;48.178;16.386;2023-11-21T13:20:52;3.67;;;1.40;;
32808;SDS011;19159;48.178;16.386;2023-11-21T13:23:20;4.18;;;1.50;;
32808;SDS011;19159;48.178;16.386;2023-11-21T13:25:46;4.40;;;1.45;;
32808;SDS011;19159;48.178;16.386;2023-11-21T13:28:13;3.55;;;1.40;;
32808;SDS011;19159;48.178;16.386;2023-11-21T13:30:47;4.68;;;1.48;;
32808;SDS011;19159;48.178;16.386;2023-11-21T13:33:13;5.22;;;1.20;;
32808;SDS011;19159;48.178;16.386;2023-11-21T13:35:43;3.45;;;1.27;;
32808;SDS011;19159;48.178;16.386;2023-11-21T13:38:14;3.10;;;1.30;;
32808;SDS011;19159;48.178;16.386;2023-11-21T13:40:42;4.03;;;1.25;;
32808;SDS011;19159;48.178;16.386;2023-11-21T13:43:14;4.70;;;1.42;;
32808;SDS011;19159;48.178;16.386;2023-11-21T13:45:42;6.88;;;1.98;;
32808;SDS011;19159;48.178;16.386;2023-11-21T13:48:09;6.03;;;1.50;;
32808;SDS011;19159;48.178;16.386;2023-11-21T13:50:42;4.07;;;1.50;;
32808;SDS011;19159;48.178;16.386;2023-11-21T13:53:13;4.15;;;1.27;;
32808;SDS011;19159;48.178;16.386;2023-11-21T13:55:51;4.78;;;1.88;;
32808;SDS011;19159;48.178;16.386;2023-11-21T13:58:22;9.40;;;2.40;;
32808;SDS011;19159;48.178;16.386;2023-11-21T14:00:59;4.88;;;1.75;;
32808;SDS011;19159;48.178;16.386;2023-11-21T14:03:26;4.18;;;2.03;;
32808;SDS011;19159;48.178;16.386;2023-11-21T14:06:04;3.90;;;2.00;;
32808;SDS011;19159;48.178;16.386;2023-11-21T14:08:39;4.95;;;2.10;;
32808;SDS011;19159;48.178;16.386;2023-11-21T14:11:06;3.95;;;2.03;;
32808;SDS011;19159;48.178;16.386;2023-11-21T14:13:32;6.38;;;2.60;;
32808;SDS011;19159;48.178;16.386;2023-11-21T14:15:58;5.82;;;2.38;;
32808;SDS011;19159;48.178;16.386;2023-11-21T14:18:27;4.05;;;1.73;;
32808;SDS011;19159;48.178;16.386;2023-11-21T14:21:03;3.72;;;1.60;;
32808;SDS011;19159;48.178;16.386;2023-11-21T14:23:33;4.32;;;1.83;;
32808;SDS011;19159;48.178;16.386;2023-11-21T14:26:01;4.68;;;1.88;;
32808;SDS011;19159;48.178;16.386;2023-11-21T14:28:26;5.15;;;1.70;;
32808;SDS011;19159;48.178;16.386;2023-11-21T14:30:52;6.45;;;2.10;;
32808;SDS011;19159;48.178;16.386;2023-11-21T14:33:18;5.55;;;2.03;;
32808;SDS011;19159;48.178;16.386;2023-11-21T14:35:44;4.78;;;1.98;;
32808;SDS011;19159;48.178;16.386;2023-11-21T14:38:09;3.53;;;1.90;;
32808;SDS011;19159;48.178;16.386;2023-11-21T14:40:35;8.77;;;2.45;;
32808;SDS011;19159;48.178;16.386;2023-11-21T14:43:01;5.75;;;2.30;;
32808;SDS011;19159;48.178;16.386;2023-11-21T14:45:33;3.53;;;1.67;;
32808;SDS011;19159;48.178;16.386;2023-11-21T14:48:00;5.28;;;1.80;;
32808;SDS011;19159;48.178;16.386;2023-11-21T14:50:40;5.07;;;2.40;;
32808;SDS011;19159;48.178;16.386;2023-11-21T14:53:07;6.03;;;2.42;;
32808;SDS011;19159;48.178;16.386;2023-11-21T14:55:37;8.68;;;2.65;;
32808;SDS011;19159;48.178;16.386;2023-11-21T14:58:17;8.07;;;2.00;;
32808;SDS011;19159;48.178;16.386;2023-11-21T15:00:52;5.90;;;2.40;;
32808;SDS011;19159;48.178;16.386;2023-11-21T15:03:23;7.28;;;2.60;;
32808;SDS011;19159;48.178;16.386;2023-11-21T15:06:08;5.05;;;2.33;;